Warrensburg, IL (62573)

9:13 PM CDT on July 29, 2014 (GMT -0500)
Forsyth Pkwy (KILFORSY2) Elev 669 ft | 39.93 °N, 88.97 °W | Change Station

Current weather conditions updated 3 minutes ago

Clear
Clear
66.8 °F
Feels Like 66.8 °F
N
0.0
Wind Variable Wind from SW
Gusts 0.0 mph

Tomorrow is forecast to be nearly the same temperature as today.

Today
High -- | Low -- °F
--% Chance of Precip.
Yesterday
High -- | Low -- °F
Precip. -- in
5:52 AM 8:12 PM
Waxing Crescent, 9% visible
Pressure 30.05 in
Visibility 10.0 miles
Clouds Clear
Dew Point 60 °F
Humidity 79%
Rainfall 0.00 in
Snow Depth Not available.
UV 0 out of 12
Pollen 6.70 out of 12
Air Quality Not available.
Flu Activity Not available.
METAR KDEC 300154Z 27005KT 10SM CLR 22/14 A3006 RMK AO2 SLP176 T02170139

More Conditions Fewer Conditions

Pressure 30.05 in
Visibility 10.0 miles
Clouds Clear
Dew Point 60 °F
Humidity 79%
Rainfall 0.00 in
Snow Depth Not available.
UV 0 out of 12
Pollen 6.70 out of 12
Air Quality Not available.
Flu Activity Not available.
METAR KDEC 300154Z 27005KT 10SM CLR 22/14 A3006 RMK AO2 SLP176 T02170139

More Conditions Fewer Conditions

10-Day Weather Forecast

Almanac

Astronomy

Jul. 29, 2014 Rise Set
Actual Time 5:52 AM CDT 8:12 PM CDT
Civil Twilight 5:21 AM CDT 8:43 PM CDT
Nautical Twilight 4:43 AM CDT 9:20 PM CDT
Astronomical Twilight 4:02 AM CDT 10:02 PM CDT
Moon 8:28 AM CDT (7/29) 9:25 PM CDT (7/29)
Length of Visible Light 15h 21m
Length of Day
14h 20m
Tomorrow will be 1m 54s shorter.
Waxing Crescent, 9% of the Moon is Illuminated
Today
Waxing Crescent
Aug 3
First Quarter
Aug 10
Full
Aug 17
Last Quarter
Aug 25
New

Today's Extremes

State Highs State Lows

Community

WunderPhotos

Upload Photos

1,738,960 photos uploaded!

Nearby

Snow Depth

Station Depth Elevation
No new snow has been reported.

Earthquake Activity

City Distance Mag. Time & Date
No recent earthquake activity has been reported nearby.
Minimum magnitude displayed is 2.5.

Coastal Water Temperatures

Place Temperature
No Stations Reporting

Nearby Weather Stations

Station Location Temp. Dew Point Humidity Wind Precip. Elev Updated Type
Forsyth Pkwy, Forsyth, IL 66.8 °F 60 °F 79% SW  at  0.0 mph 0.00 in / hr 669 ft 9:10 PM CDT Normal
APPLEVILLE, Mt Auburn, IL 67.1 °F 29 °F 24% WSW  at  0.0 mph - / hr 607 ft 9:10 PM CDT Normal
Sandhill Dr. & Lost Bridge Rd., Decatur, IL 68.2 °F 67 °F 96% North  at  0.0 mph 0.00 in / hr 676 ft 9:13 PM CDT Rapid Fire
Hillcrest, Clinton, IL 67.3 °F 45 °F 44% SW  at  0.0 mph 0.00 in / hr 738 ft 9:13 PM CDT Rapid Fire
South Weather Station, Mechanicsburg, IL 63.5 °F 57 °F 79% North  at  0.0 mph 0.00 in / hr 587 ft 9:13 PM CDT Rapid Fire
MesoWest BRDWEL , Elkhart, IL 0 °F - - North  at  - 0.00 in / hr 589 ft 8:20 PM CDT MADIS
MesoWest ATLNTA , Atlanta, IL 72 °F - - North  at  - 0.00 in / hr 658 ft 7:45 PM CDT MADIS

Show More Stations Show Fewer Stations